»·PEaware :: N6262K KVNY-KSAN

N6262K :: KVNY-KSAN

FLIGHT INFORMATION

Flight Status: Arrived
Operator: Privately registered:
United States
More flights under this callsign
Pilot: Judson K. (15650)
Aircraft: MITSUBISHI MU-2 MARQUISE
(MU2)
More flights by this aircraft type
Origin: KVNY Van Nuys
United States
Destination: KSAN San Diego Intl-Lindbergh
United States
More flights between these airports :: More routes between these airports
Route: +TWINE V518 KIMMO V459 SLI V23 KELPS MZB
File this flight plan on PilotEdge
Remarks:
Altitude:
(Current/Filed)
19,000ft
Speed:
(Current/Filed)
240kts
Departed: 22-Dec-17 04:59 PM
Arrived: 22-Dec-17 05:39 PM
Distance/Time
Traveled:
110nm/0:39
Distance/Time
To Go:
Arrived

Flight Plot

Page will automatically refresh every two minutes.


Map Options




Map Legend


Flown Route
Filed Route
Departure Airport
Arrival Airport
Navaid (VOR, NDB)
Fix

Horizontal Profiles

Position Reports

Time Latitude Longitude Heading Altitude Ground
Speed
22-Dec-17 16:39 34.205915 -118.493613 92 770ft 0kts
22-Dec-17 16:40 34.205915 -118.493613 92 770ft 0kts
22-Dec-17 16:41 34.205915 -118.493613 92 770ft 0kts
22-Dec-17 16:42 34.205915 -118.493613 92 770ft 0kts
22-Dec-17 16:43 34.205915 -118.493613 92 770ft 0kts
22-Dec-17 16:44 34.205915 -118.493612 92 770ft 0kts
22-Dec-17 16:45 34.205915 -118.493612 92 770ft 0kts
22-Dec-17 16:46 34.205915 -118.493612 92 770ft 0kts
22-Dec-17 16:47 34.205915 -118.493612 92 770ft 0kts
22-Dec-17 16:48 34.205915 -118.493612 92 770ft 0kts
22-Dec-17 16:49 34.205915 -118.493612 92 770ft 0kts
22-Dec-17 16:50 34.205915 -118.493612 92 770ft 0kts
22-Dec-17 16:51 34.205915 -118.493612 92 770ft 0kts
22-Dec-17 16:52 34.205915 -118.493613 91 770ft 0kts
22-Dec-17 16:53 34.205909 -118.493456 93 770ft 0kts
22-Dec-17 16:54 34.205871 -118.493289 134 770ft 4kts
22-Dec-17 16:55 34.206138 -118.493322 356 770ft 14kts
22-Dec-17 16:56 34.206589 -118.491592 88 771ft 0kts
22-Dec-17 16:57 34.206589 -118.491592 88 771ft 0kts
22-Dec-17 16:58 34.206774 -118.491258 11 771ft 8kts
22-Dec-17 16:59 34.210813 -118.491615 355 779ft 19kts
22-Dec-17 17:00 34.216513 -118.492227 357 794ft 21kts
22-Dec-17 17:01 34.218763 -118.492099 79 798ft 0kts
22-Dec-17 17:02 34.218763 -118.492099 79 798ft 0kts
22-Dec-17 17:03 34.218763 -118.492099 79 798ft 0kts
22-Dec-17 17:04 34.218784 -118.491738 92 798ft 8kts
22-Dec-17 17:05 34.204661 -118.489721 175 865ft 148kts
22-Dec-17 17:06 34.182686 -118.450971 117 3070ft 156kts
22-Dec-17 17:07 34.205755 -118.438235 327 4177ft 212kts
22-Dec-17 17:08 34.266276 -118.455576 352 4728ft 208kts
22-Dec-17 17:09 34.313851 -118.451740 63 5983ft 165kts
22-Dec-17 17:10 34.296936 -118.400973 122 8126ft 172kts
22-Dec-17 17:11 34.273007 -118.354984 122 8991ft 236kts
22-Dec-17 17:12 34.203859 -118.296948 163 8979ft 291kts
22-Dec-17 17:13 34.141603 -118.267078 157 8968ft 291kts
22-Dec-17 17:14 34.056148 -118.217920 154 8972ft 294kts
22-Dec-17 17:15 33.995332 -118.181163 154 8970ft 295kts
22-Dec-17 17:16 33.909669 -118.130065 154 8990ft 296kts
22-Dec-17 17:17 33.849167 -118.094129 154 8987ft 296kts
22-Dec-17 17:18 33.776117 -118.050812 150 8966ft 297kts
22-Dec-17 17:19 33.718860 -117.979996 133 8960ft 296kts
22-Dec-17 17:20 33.661343 -117.909757 134 8961ft 296kts
22-Dec-17 17:21 33.602967 -117.840283 134 8961ft 296kts
22-Dec-17 17:22 33.544455 -117.770620 134 8961ft 296kts
22-Dec-17 17:23 33.486019 -117.701304 138 8957ft 296kts
22-Dec-17 17:24 33.424669 -117.635721 135 8962ft 296kts
22-Dec-17 17:25 33.365939 -117.566483 134 8962ft 297kts
22-Dec-17 17:26 33.307399 -117.497060 134 8987ft 297kts
22-Dec-17 17:27 33.250325 -117.425856 132 8992ft 297kts
22-Dec-17 17:28 33.176465 -117.395724 172 8992ft 294kts
22-Dec-17 17:29 33.097845 -117.368956 162 8990ft 295kts
22-Dec-17 17:30 33.021610 -117.335071 160 8990ft 296kts
22-Dec-17 17:31 32.949964 -117.302268 160 7734ft 269kts
22-Dec-17 17:32 32.881750 -117.271163 159 6983ft 266kts
22-Dec-17 17:33 32.812434 -117.239470 159 6982ft 267kts
22-Dec-17 17:34 32.743303 -117.207790 159 6982ft 266kts
22-Dec-17 17:35 32.674443 -117.176264 159 6982ft 266kts
22-Dec-17 17:36 32.605379 -117.144724 159 6982ft 266kts
22-Dec-17 17:37 32.586608 -117.076965 63 5784ft 258kts
22-Dec-17 17:38 32.616427 -117.003593 62 4974ft 223kts
22-Dec-17 17:39 32.662786 -116.981893 331 3959ft 213kts
22-Dec-17 17:40 32.700778 -117.026380 277 3210ft 190kts
22-Dec-17 17:41 32.708064 -117.083256 282 2385ft 159kts
22-Dec-17 17:42 32.717983 -117.125996 289 1201ft 113kts
22-Dec-17 17:43 32.726950 -117.162269 288 441ft 116kts
22-Dec-17 17:44 32.734154 -117.191949 285 17ft 42kts
22-Dec-17 17:45 32.734291 -117.194781 244 17ft 0kts
22-Dec-17 17:46 32.733287 -117.192920 106 17ft 21kts
22-Dec-17 17:47 32.734641 -117.189229 88 17ft 12kts
22-Dec-17 17:48 32.735299 -117.188960 204 17ft 0kts
22-Dec-17 17:49 32.735299 -117.188960 203 17ft 0kts
22-Dec-17 17:50 32.735299 -117.188960 203 17ft 0kts
22-Dec-17 17:51 32.735299 -117.188960 203 17ft 0kts
22-Dec-17 17:52 32.735299 -117.188960 203 17ft 0kts
22-Dec-17 17:53 32.735299 -117.188960 203 17ft 0kts
22-Dec-17 17:54 32.735299 -117.188960 203 17ft 0kts
22-Dec-17 17:55 32.735299 -117.188960 203 17ft 0kts

Navigation Log

Ident Type
1. KVNY Airport
2. TWINE Fix
3. LANGE Fix
4. KIMMO Fix
5. BERRI Fix
6. DARTS Fix
7. DODGR Fix
8. SLI Navaid
9. MIDDS Fix
10. BALBO Fix
11. KRAUZ Fix
12. DANAH Fix
13. KELPS Fix
14. MZB Navaid
15. KSAN Airport